sensor_id;sensor_type;location;lat;lon;timestamp;P1;durP1;ratioP1;P2;durP2;ratioP2
57303;SDS011;43150;50.986;18.208;2023-01-08T00:01:25;85.90;;;45.00;;
57303;SDS011;43150;50.986;18.208;2023-01-08T00:03:51;80.70;;;42.90;;
57303;SDS011;43150;50.986;18.208;2023-01-08T00:06:20;76.70;;;43.40;;
57303;SDS011;43150;50.986;18.208;2023-01-08T00:08:46;81.40;;;41.20;;
57303;SDS011;43150;50.986;18.208;2023-01-08T00:11:12;75.30;;;41.20;;
57303;SDS011;43150;50.986;18.208;2023-01-08T00:13:37;73.60;;;40.80;;
57303;SDS011;43150;50.986;18.208;2023-01-08T00:16:04;70.40;;;39.30;;
57303;SDS011;43150;50.986;18.208;2023-01-08T00:18:29;69.10;;;39.40;;
57303;SDS011;43150;50.986;18.208;2023-01-08T00:20:55;75.90;;;40.10;;
57303;SDS011;43150;50.986;18.208;2023-01-08T00:23:20;70.90;;;40.00;;
57303;SDS011;43150;50.986;18.208;2023-01-08T00:25:47;73.00;;;38.60;;
57303;SDS011;43150;50.986;18.208;2023-01-08T00:28:12;64.60;;;37.90;;
57303;SDS011;43150;50.986;18.208;2023-01-08T00:30:39;54.60;;;36.10;;
57303;SDS011;43150;50.986;18.208;2023-01-08T00:33:04;53.40;;;35.50;;
57303;SDS011;43150;50.986;18.208;2023-01-08T00:35:30;58.30;;;35.70;;
57303;SDS011;43150;50.986;18.208;2023-01-08T00:37:56;59.50;;;36.50;;
57303;SDS011;43150;50.986;18.208;2023-01-08T00:40:21;55.80;;;34.80;;
57303;SDS011;43150;50.986;18.208;2023-01-08T00:42:47;54.30;;;35.20;;
57303;SDS011;43150;50.986;18.208;2023-01-08T00:45:13;64.50;;;38.80;;
57303;SDS011;43150;50.986;18.208;2023-01-08T00:47:39;57.00;;;36.10;;
57303;SDS011;43150;50.986;18.208;2023-01-08T00:50:05;50.20;;;36.00;;
57303;SDS011;43150;50.986;18.208;2023-01-08T00:52:31;49.60;;;33.50;;
57303;SDS011;43150;50.986;18.208;2023-01-08T00:54:57;51.60;;;35.90;;
57303;SDS011;43150;50.986;18.208;2023-01-08T00:57:31;52.40;;;35.30;;
57303;SDS011;43150;50.986;18.208;2023-01-08T00:59:56;52.90;;;34.10;;
57303;SDS011;43150;50.986;18.208;2023-01-08T01:02:22;51.10;;;33.90;;
57303;SDS011;43150;50.986;18.208;2023-01-08T01:04:47;53.90;;;33.70;;
57303;SDS011;43150;50.986;18.208;2023-01-08T01:07:13;49.70;;;34.50;;
57303;SDS011;43150;50.986;18.208;2023-01-08T01:09:38;49.30;;;34.50;;
57303;SDS011;43150;50.986;18.208;2023-01-08T01:12:05;49.50;;;34.50;;
57303;SDS011;43150;50.986;18.208;2023-01-08T01:14:33;50.50;;;34.70;;
57303;SDS011;43150;50.986;18.208;2023-01-08T01:16:59;50.30;;;33.70;;
57303;SDS011;43150;50.986;18.208;2023-01-08T01:19:24;54.10;;;34.90;;
57303;SDS011;43150;50.986;18.208;2023-01-08T01:21:51;51.60;;;36.40;;
57303;SDS011;43150;50.986;18.208;2023-01-08T01:24:17;55.40;;;34.90;;
57303;SDS011;43150;50.986;18.208;2023-01-08T01:26:43;50.60;;;34.90;;
57303;SDS011;43150;50.986;18.208;2023-01-08T01:29:08;50.00;;;33.20;;
57303;SDS011;43150;50.986;18.208;2023-01-08T01:31:34;55.20;;;36.70;;
57303;SDS011;43150;50.986;18.208;2023-01-08T01:33:59;53.90;;;35.20;;
57303;SDS011;43150;50.986;18.208;2023-01-08T01:36:31;51.10;;;34.10;;
57303;SDS011;43150;50.986;18.208;2023-01-08T01:38:59;54.80;;;36.70;;
57303;SDS011;43150;50.986;18.208;2023-01-08T01:41:35;55.20;;;35.60;;
57303;SDS011;43150;50.986;18.208;2023-01-08T01:46:32;56.60;;;35.40;;
57303;SDS011;43150;50.986;18.208;2023-01-08T01:48:59;56.70;;;39.10;;
57303;SDS011;43150;50.986;18.208;2023-01-08T01:51:28;54.80;;;36.40;;
57303;SDS011;43150;50.986;18.208;2023-01-08T01:53:55;49.30;;;35.00;;
57303;SDS011;43150;50.986;18.208;2023-01-08T01:56:21;55.70;;;38.00;;
57303;SDS011;43150;50.986;18.208;2023-01-08T01:58:46;54.90;;;36.60;;
57303;SDS011;43150;50.986;18.208;2023-01-08T02:01:12;52.50;;;35.10;;
57303;SDS011;43150;50.986;18.208;2023-01-08T02:03:38;58.10;;;37.40;;
57303;SDS011;43150;50.986;18.208;2023-01-08T02:08:55;56.90;;;36.10;;
57303;SDS011;43150;50.986;18.208;2023-01-08T02:11:28;57.30;;;35.90;;
57303;SDS011;43150;50.986;18.208;2023-01-08T02:14:15;56.40;;;36.10;;
57303;SDS011;43150;50.986;18.208;2023-01-08T02:19:16;61.00;;;36.50;;
57303;SDS011;43150;50.986;18.208;2023-01-08T02:24:45;48.70;;;33.20;;
57303;SDS011;43150;50.986;18.208;2023-01-08T02:27:13;53.40;;;34.20;;
57303;SDS011;43150;50.986;18.208;2023-01-08T02:29:40;51.90;;;32.30;;
57303;SDS011;43150;50.986;18.208;2023-01-08T02:32:06;51.00;;;34.20;;
57303;SDS011;43150;50.986;18.208;2023-01-08T02:34:32;51.80;;;34.20;;
57303;SDS011;43150;50.986;18.208;2023-01-08T02:36:58;53.20;;;33.60;;
57303;SDS011;43150;50.986;18.208;2023-01-08T02:47:16;51.00;;;33.10;;
57303;SDS011;43150;50.986;18.208;2023-01-08T02:49:44;48.50;;;32.00;;
57303;SDS011;43150;50.986;18.208;2023-01-08T02:52:10;46.60;;;32.60;;
57303;SDS011;43150;50.986;18.208;2023-01-08T02:54:37;52.10;;;31.70;;
57303;SDS011;43150;50.986;18.208;2023-01-08T02:57:11;45.70;;;30.80;;
57303;SDS011;43150;50.986;18.208;2023-01-08T02:59:38;43.00;;;30.00;;
57303;SDS011;43150;50.986;18.208;2023-01-08T03:02:05;46.90;;;29.80;;
57303;SDS011;43150;50.986;18.208;2023-01-08T03:04:33;47.10;;;31.30;;
57303;SDS011;43150;50.986;18.208;2023-01-08T03:07:00;46.90;;;29.60;;
57303;SDS011;43150;50.986;18.208;2023-01-08T03:09:30;44.40;;;28.30;;
57303;SDS011;43150;50.986;18.208;2023-01-08T03:14:58;44.90;;;28.30;;
57303;SDS011;43150;50.986;18.208;2023-01-08T03:17:34;42.90;;;27.30;;
57303;SDS011;43150;50.986;18.208;2023-01-08T03:20:03;43.60;;;29.10;;
57303;SDS011;43150;50.986;18.208;2023-01-08T03:22:30;42.20;;;26.10;;
57303;SDS011;43150;50.986;18.208;2023-01-08T03:24:57;40.00;;;27.60;;
57303;SDS011;43150;50.986;18.208;2023-01-08T03:27:24;39.10;;;26.70;;
57303;SDS011;43150;50.986;18.208;2023-01-08T03:29:51;39.30;;;26.60;;
57303;SDS011;43150;50.986;18.208;2023-01-08T03:32:20;38.40;;;26.30;;
57303;SDS011;43150;50.986;18.208;2023-01-08T03:34:47;41.40;;;27.50;;
57303;SDS011;43150;50.986;18.208;2023-01-08T03:37:13;38.30;;;26.80;;
57303;SDS011;43150;50.986;18.208;2023-01-08T03:39:43;39.80;;;24.50;;
57303;SDS011;43150;50.986;18.208;2023-01-08T03:42:10;37.30;;;25.00;;
57303;SDS011;43150;50.986;18.208;2023-01-08T03:44:37;38.10;;;23.50;;
57303;SDS011;43150;50.986;18.208;2023-01-08T03:47:03;38.30;;;25.80;;
57303;SDS011;43150;50.986;18.208;2023-01-08T03:49:30;36.10;;;25.30;;
57303;SDS011;43150;50.986;18.208;2023-01-08T03:51:56;37.00;;;25.90;;
57303;SDS011;43150;50.986;18.208;2023-01-08T03:54:22;34.00;;;24.50;;
57303;SDS011;43150;50.986;18.208;2023-01-08T03:56:49;37.20;;;23.20;;
57303;SDS011;43150;50.986;18.208;2023-01-08T03:59:14;31.80;;;23.20;;
57303;SDS011;43150;50.986;18.208;2023-01-08T04:01:40;34.10;;;23.00;;
57303;SDS011;43150;50.986;18.208;2023-01-08T04:04:06;34.90;;;23.00;;
57303;SDS011;43150;50.986;18.208;2023-01-08T04:06:32;29.90;;;21.70;;
57303;SDS011;43150;50.986;18.208;2023-01-08T04:08:58;37.30;;;22.70;;
57303;SDS011;43150;50.986;18.208;2023-01-08T04:11:24;34.90;;;23.40;;
57303;SDS011;43150;50.986;18.208;2023-01-08T04:13:57;29.80;;;20.60;;
57303;SDS011;43150;50.986;18.208;2023-01-08T04:16:23;35.50;;;23.20;;
57303;SDS011;43150;50.986;18.208;2023-01-08T04:18:48;31.70;;;22.00;;
57303;SDS011;43150;50.986;18.208;2023-01-08T04:21:14;33.40;;;22.20;;
57303;SDS011;43150;50.986;18.208;2023-01-08T04:23:40;32.70;;;23.40;;
57303;SDS011;43150;50.986;18.208;2023-01-08T04:26:08;33.90;;;22.20;;
57303;SDS011;43150;50.986;18.208;2023-01-08T04:28:34;31.30;;;23.00;;
57303;SDS011;43150;50.986;18.208;2023-01-08T04:31:03;33.60;;;23.30;;
57303;SDS011;43150;50.986;18.208;2023-01-08T04:33:29;34.80;;;23.30;;
57303;SDS011;43150;50.986;18.208;2023-01-08T04:35:57;34.50;;;22.00;;
57303;SDS011;43150;50.986;18.208;2023-01-08T04:38:23;36.00;;;23.70;;
57303;SDS011;43150;50.986;18.208;2023-01-08T04:40:48;35.60;;;22.60;;
57303;SDS011;43150;50.986;18.208;2023-01-08T04:43:14;38.30;;;24.60;;
57303;SDS011;43150;50.986;18.208;2023-01-08T04:45:40;36.80;;;24.30;;
57303;SDS011;43150;50.986;18.208;2023-01-08T04:48:05;36.00;;;23.90;;
57303;SDS011;43150;50.986;18.208;2023-01-08T04:50:31;38.50;;;24.50;;
57303;SDS011;43150;50.986;18.208;2023-01-08T04:52:57;35.70;;;25.00;;
57303;SDS011;43150;50.986;18.208;2023-01-08T04:55:23;36.40;;;25.10;;
57303;SDS011;43150;50.986;18.208;2023-01-08T04:57:48;37.20;;;24.60;;
57303;SDS011;43150;50.986;18.208;2023-01-08T05:00:14;34.70;;;23.70;;
57303;SDS011;43150;50.986;18.208;2023-01-08T05:02:40;36.70;;;25.60;;
57303;SDS011;43150;50.986;18.208;2023-01-08T05:05:05;35.80;;;23.80;;
57303;SDS011;43150;50.986;18.208;2023-01-08T05:07:31;38.80;;;25.50;;
57303;SDS011;43150;50.986;18.208;2023-01-08T05:09:57;38.20;;;26.10;;
57303;SDS011;43150;50.986;18.208;2023-01-08T05:12:22;39.50;;;26.40;;
57303;SDS011;43150;50.986;18.208;2023-01-08T05:14:48;37.90;;;27.90;;
57303;SDS011;43150;50.986;18.208;2023-01-08T05:17:14;40.60;;;25.70;;
57303;SDS011;43150;50.986;18.208;2023-01-08T05:19:39;36.70;;;26.00;;
57303;SDS011;43150;50.986;18.208;2023-01-08T05:22:05;38.00;;;26.30;;
57303;SDS011;43150;50.986;18.208;2023-01-08T05:24:31;37.40;;;25.00;;
57303;SDS011;43150;50.986;18.208;2023-01-08T05:26:56;42.10;;;28.10;;
57303;SDS011;43150;50.986;18.208;2023-01-08T05:29:22;41.10;;;26.60;;
57303;SDS011;43150;50.986;18.208;2023-01-08T05:31:48;39.10;;;26.70;;
57303;SDS011;43150;50.986;18.208;2023-01-08T05:34:13;36.80;;;24.90;;
57303;SDS011;43150;50.986;18.208;2023-01-08T05:36:39;42.00;;;28.40;;
57303;SDS011;43150;50.986;18.208;2023-01-08T05:39:04;40.70;;;25.90;;
57303;SDS011;43150;50.986;18.208;2023-01-08T05:41:30;38.00;;;26.10;;
57303;SDS011;43150;50.986;18.208;2023-01-08T05:43:55;38.30;;;26.80;;
57303;SDS011;43150;50.986;18.208;2023-01-08T05:46:21;40.50;;;29.20;;
57303;SDS011;43150;50.986;18.208;2023-01-08T05:48:46;38.10;;;25.30;;
57303;SDS011;43150;50.986;18.208;2023-01-08T05:51:12;39.60;;;25.90;;
57303;SDS011;43150;50.986;18.208;2023-01-08T05:53:37;39.10;;;26.10;;
57303;SDS011;43150;50.986;18.208;2023-01-08T05:56:04;39.80;;;28.50;;
57303;SDS011;43150;50.986;18.208;2023-01-08T05:58:30;41.00;;;27.20;;
57303;SDS011;43150;50.986;18.208;2023-01-08T06:01:06;39.20;;;28.00;;
57303;SDS011;43150;50.986;18.208;2023-01-08T06:03:32;45.00;;;30.30;;
57303;SDS011;43150;50.986;18.208;2023-01-08T06:06:01;40.20;;;26.70;;
57303;SDS011;43150;50.986;18.208;2023-01-08T06:08:27;44.70;;;27.30;;
57303;SDS011;43150;50.986;18.208;2023-01-08T06:10:53;44.30;;;30.00;;
57303;SDS011;43150;50.986;18.208;2023-01-08T06:13:19;41.70;;;27.40;;
57303;SDS011;43150;50.986;18.208;2023-01-08T06:15:44;41.20;;;26.80;;
57303;SDS011;43150;50.986;18.208;2023-01-08T06:18:10;42.00;;;27.70;;
57303;SDS011;43150;50.986;18.208;2023-01-08T06:20:38;41.00;;;27.30;;
57303;SDS011;43150;50.986;18.208;2023-01-08T06:23:04;40.50;;;26.60;;
57303;SDS011;43150;50.986;18.208;2023-01-08T06:25:30;40.10;;;27.50;;
57303;SDS011;43150;50.986;18.208;2023-01-08T06:27:55;38.70;;;25.90;;
57303;SDS011;43150;50.986;18.208;2023-01-08T06:30:21;39.00;;;27.50;;
57303;SDS011;43150;50.986;18.208;2023-01-08T06:32:47;44.60;;;26.50;;
57303;SDS011;43150;50.986;18.208;2023-01-08T06:35:12;39.90;;;26.70;;
57303;SDS011;43150;50.986;18.208;2023-01-08T06:37:38;35.40;;;25.00;;
57303;SDS011;43150;50.986;18.208;2023-01-08T06:40:04;37.60;;;25.70;;
57303;SDS011;43150;50.986;18.208;2023-01-08T06:42:29;39.40;;;26.50;;
57303;SDS011;43150;50.986;18.208;2023-01-08T06:44:55;38.60;;;26.20;;
57303;SDS011;43150;50.986;18.208;2023-01-08T06:47:20;43.60;;;29.10;;
57303;SDS011;43150;50.986;18.208;2023-01-08T06:49:49;43.90;;;27.30;;
57303;SDS011;43150;50.986;18.208;2023-01-08T06:52:14;42.30;;;27.50;;
57303;SDS011;43150;50.986;18.208;2023-01-08T06:54:40;43.90;;;29.00;;
57303;SDS011;43150;50.986;18.208;2023-01-08T06:57:05;44.80;;;27.30;;
57303;SDS011;43150;50.986;18.208;2023-01-08T06:59:31;41.80;;;27.30;;
57303;SDS011;43150;50.986;18.208;2023-01-08T07:01:56;38.50;;;26.60;;
57303;SDS011;43150;50.986;18.208;2023-01-08T07:04:22;35.40;;;24.90;;
57303;SDS011;43150;50.986;18.208;2023-01-08T07:06:48;43.20;;;26.40;;
57303;SDS011;43150;50.986;18.208;2023-01-08T07:09:14;43.20;;;27.00;;
57303;SDS011;43150;50.986;18.208;2023-01-08T07:11:40;39.90;;;26.40;;
57303;SDS011;43150;50.986;18.208;2023-01-08T07:14:06;39.60;;;25.70;;
57303;SDS011;43150;50.986;18.208;2023-01-08T07:16:31;40.10;;;26.30;;
57303;SDS011;43150;50.986;18.208;2023-01-08T07:18:57;36.90;;;25.20;;
57303;SDS011;43150;50.986;18.208;2023-01-08T07:21:25;37.00;;;25.30;;
57303;SDS011;43150;50.986;18.208;2023-01-08T07:23:51;35.20;;;24.80;;
57303;SDS011;43150;50.986;18.208;2023-01-08T07:26:16;32.90;;;23.80;;
57303;SDS011;43150;50.986;18.208;2023-01-08T07:28:42;32.70;;;22.00;;
57303;SDS011;43150;50.986;18.208;2023-01-08T07:31:07;30.30;;;22.40;;
57303;SDS011;43150;50.986;18.208;2023-01-08T07:33:40;34.40;;;23.50;;
57303;SDS011;43150;50.986;18.208;2023-01-08T07:36:05;32.80;;;23.30;;
57303;SDS011;43150;50.986;18.208;2023-01-08T07:38:31;34.90;;;23.10;;
57303;SDS011;43150;50.986;18.208;2023-01-08T07:40:56;35.50;;;24.00;;
57303;SDS011;43150;50.986;18.208;2023-01-08T07:43:23;39.30;;;25.90;;
57303;SDS011;43150;50.986;18.208;2023-01-08T07:45:49;34.50;;;24.30;;
57303;SDS011;43150;50.986;18.208;2023-01-08T07:48:14;37.30;;;25.00;;
57303;SDS011;43150;50.986;18.208;2023-01-08T07:50:43;36.00;;;23.60;;
57303;SDS011;43150;50.986;18.208;2023-01-08T07:53:10;33.00;;;24.30;;
57303;SDS011;43150;50.986;18.208;2023-01-08T07:55:36;34.50;;;23.60;;
57303;SDS011;43150;50.986;18.208;2023-01-08T07:58:06;37.60;;;23.80;;
57303;SDS011;43150;50.986;18.208;2023-01-08T08:00:31;34.40;;;25.00;;
57303;SDS011;43150;50.986;18.208;2023-01-08T08:03:00;32.50;;;23.10;;
57303;SDS011;43150;50.986;18.208;2023-01-08T08:05:26;39.40;;;24.20;;
57303;SDS011;43150;50.986;18.208;2023-01-08T08:07:52;36.80;;;22.70;;
57303;SDS011;43150;50.986;18.208;2023-01-08T08:10:17;34.30;;;22.80;;
57303;SDS011;43150;50.986;18.208;2023-01-08T08:12:43;32.00;;;23.40;;
57303;SDS011;43150;50.986;18.208;2023-01-08T08:15:10;35.90;;;22.20;;
57303;SDS011;43150;50.986;18.208;2023-01-08T08:17:35;31.40;;;23.90;;
57303;SDS011;43150;50.986;18.208;2023-01-08T08:20:01;31.30;;;22.90;;
57303;SDS011;43150;50.986;18.208;2023-01-08T08:22:27;30.60;;;21.90;;
57303;SDS011;43150;50.986;18.208;2023-01-08T08:24:52;33.40;;;30.00;;
57303;SDS011;43150;50.986;18.208;2023-01-08T08:27:18;33.40;;;22.10;;
57303;SDS011;43150;50.986;18.208;2023-01-08T08:29:43;33.40;;;23.20;;
57303;SDS011;43150;50.986;18.208;2023-01-08T08:32:10;30.70;;;20.60;;
57303;SDS011;43150;50.986;18.208;2023-01-08T08:34:35;29.50;;;26.30;;
57303;SDS011;43150;50.986;18.208;2023-01-08T08:37:01;32.60;;;29.10;;
57303;SDS011;43150;50.986;18.208;2023-01-08T08:39:27;29.90;;;27.00;;
57303;SDS011;43150;50.986;18.208;2023-01-08T08:41:52;32.50;;;21.80;;
57303;SDS011;43150;50.986;18.208;2023-01-08T08:44:18;30.40;;;27.30;;
57303;SDS011;43150;50.986;18.208;2023-01-08T08:46:50;32.80;;;29.40;;
57303;SDS011;43150;50.986;18.208;2023-01-08T08:49:16;33.10;;;25.10;;
57303;SDS011;43150;50.986;18.208;2023-01-08T08:51:41;35.70;;;32.10;;
57303;SDS011;43150;50.986;18.208;2023-01-08T08:54:06;33.30;;;29.80;;
57303;SDS011;43150;50.986;18.208;2023-01-08T08:56:36;33.40;;;29.90;;
57303;SDS011;43150;50.986;18.208;2023-01-08T08:59:01;29.40;;;26.30;;
57303;SDS011;43150;50.986;18.208;2023-01-08T09:01:28;28.50;;;25.60;;
57303;SDS011;43150;50.986;18.208;2023-01-08T09:03:53;29.50;;;26.50;;
57303;SDS011;43150;50.986;18.208;2023-01-08T09:06:19;26.30;;;19.40;;
57303;SDS011;43150;50.986;18.208;2023-01-08T09:08:45;27.00;;;20.10;;
57303;SDS011;43150;50.986;18.208;2023-01-08T09:11:10;26.50;;;23.70;;
57303;SDS011;43150;50.986;18.208;2023-01-08T09:13:36;27.50;;;24.60;;
57303;SDS011;43150;50.986;18.208;2023-01-08T09:16:02;26.00;;;23.30;;
57303;SDS011;43150;50.986;18.208;2023-01-08T09:18:28;24.20;;;21.60;;
57303;SDS011;43150;50.986;18.208;2023-01-08T09:20:54;23.90;;;21.40;;
57303;SDS011;43150;50.986;18.208;2023-01-08T09:23:19;24.70;;;22.20;;
57303;SDS011;43150;50.986;18.208;2023-01-08T09:25:45;24.80;;;22.30;;
57303;SDS011;43150;50.986;18.208;2023-01-08T09:28:10;26.40;;;23.70;;
57303;SDS011;43150;50.986;18.208;2023-01-08T09:30:37;23.40;;;21.00;;
57303;SDS011;43150;50.986;18.208;2023-01-08T09:33:03;25.40;;;22.70;;
57303;SDS011;43150;50.986;18.208;2023-01-08T09:35:30;25.50;;;23.00;;
57303;SDS011;43150;50.986;18.208;2023-01-08T09:37:56;27.70;;;24.80;;
57303;SDS011;43150;50.986;18.208;2023-01-08T09:43:13;24.80;;;22.10;;
57303;SDS011;43150;50.986;18.208;2023-01-08T09:45:40;24.50;;;22.00;;
57303;SDS011;43150;50.986;18.208;2023-01-08T09:48:11;24.50;;;22.00;;
57303;SDS011;43150;50.986;18.208;2023-01-08T09:50:38;24.20;;;21.50;;
57303;SDS011;43150;50.986;18.208;2023-01-08T09:53:03;21.60;;;19.30;;
57303;SDS011;43150;50.986;18.208;2023-01-08T09:56:10;23.20;;;20.80;;
57303;SDS011;43150;50.986;18.208;2023-01-08T10:01:03;21.20;;;19.00;;
57303;SDS011;43150;50.986;18.208;2023-01-08T10:06:16;21.70;;;19.50;;
57303;SDS011;43150;50.986;18.208;2023-01-08T10:08:42;21.70;;;19.40;;
57303;SDS011;43150;50.986;18.208;2023-01-08T10:11:08;19.90;;;17.80;;
57303;SDS011;43150;50.986;18.208;2023-01-08T10:13:36;20.60;;;18.50;;
57303;SDS011;43150;50.986;18.208;2023-01-08T10:16:04;20.50;;;18.30;;
57303;SDS011;43150;50.986;18.208;2023-01-08T10:18:31;20.40;;;18.40;;
57303;SDS011;43150;50.986;18.208;2023-01-08T10:20:57;18.80;;;16.90;;
57303;SDS011;43150;50.986;18.208;2023-01-08T10:23:27;19.90;;;17.90;;
57303;SDS011;43150;50.986;18.208;2023-01-08T10:25:56;18.40;;;16.50;;
57303;SDS011;43150;50.986;18.208;2023-01-08T10:28:29;18.40;;;16.60;;
57303;SDS011;43150;50.986;18.208;2023-01-08T10:30:59;20.70;;;18.70;;
57303;SDS011;43150;50.986;18.208;2023-01-08T10:33:29;22.00;;;19.80;;
57303;SDS011;43150;50.986;18.208;2023-01-08T10:36:02;20.40;;;18.30;;
57303;SDS011;43150;50.986;18.208;2023-01-08T10:38:35;20.30;;;18.20;;
57303;SDS011;43150;50.986;18.208;2023-01-08T10:41:03;20.70;;;18.50;;
57303;SDS011;43150;50.986;18.208;2023-01-08T10:43:40;19.10;;;17.20;;
57303;SDS011;43150;50.986;18.208;2023-01-08T10:46:07;19.10;;;17.10;;
57303;SDS011;43150;50.986;18.208;2023-01-08T10:48:37;20.00;;;17.90;;
57303;SDS011;43150;50.986;18.208;2023-01-08T10:51:04;20.10;;;18.10;;
57303;SDS011;43150;50.986;18.208;2023-01-08T10:53:30;20.20;;;18.20;;
57303;SDS011;43150;50.986;18.208;2023-01-08T10:55:57;21.40;;;19.20;;
57303;SDS011;43150;50.986;18.208;2023-01-08T10:58:23;20.50;;;18.40;;
57303;SDS011;43150;50.986;18.208;2023-01-08T11:00:49;20.50;;;18.50;;
57303;SDS011;43150;50.986;18.208;2023-01-08T11:03:33;19.60;;;17.60;;
57303;SDS011;43150;50.986;18.208;2023-01-08T11:05:59;20.20;;;18.00;;
57303;SDS011;43150;50.986;18.208;2023-01-08T11:08:28;19.60;;;17.60;;
57303;SDS011;43150;50.986;18.208;2023-01-08T11:10:54;20.10;;;18.10;;
57303;SDS011;43150;50.986;18.208;2023-01-08T11:13:20;19.90;;;17.80;;
57303;SDS011;43150;50.986;18.208;2023-01-08T11:15:46;21.10;;;18.90;;
57303;SDS011;43150;50.986;18.208;2023-01-08T11:18:23;20.20;;;18.00;;
57303;SDS011;43150;50.986;18.208;2023-01-08T11:20:49;23.60;;;21.10;;
57303;SDS011;43150;50.986;18.208;2023-01-08T11:23:25;21.10;;;18.90;;
57303;SDS011;43150;50.986;18.208;2023-01-08T11:28:39;21.00;;;18.90;;
57303;SDS011;43150;50.986;18.208;2023-01-08T11:31:13;22.80;;;20.30;;
57303;SDS011;43150;50.986;18.208;2023-01-08T11:33:41;26.40;;;23.50;;
57303;SDS011;43150;50.986;18.208;2023-01-08T11:36:10;20.40;;;18.40;;
57303;SDS011;43150;50.986;18.208;2023-01-08T11:38:37;19.20;;;17.20;;
57303;SDS011;43150;50.986;18.208;2023-01-08T11:46:21;26.10;;;22.60;;
57303;SDS011;43150;50.986;18.208;2023-01-08T11:53:45;24.80;;;22.40;;
57303;SDS011;43150;50.986;18.208;2023-01-08T12:29:39;24.60;;;22.10;;
57303;SDS011;43150;50.986;18.208;2023-01-08T12:32:16;25.40;;;22.80;;
57303;SDS011;43150;50.986;18.208;2023-01-08T12:35:03;23.70;;;21.50;;
57303;SDS011;43150;50.986;18.208;2023-01-08T12:39:57;21.70;;;19.50;;
57303;SDS011;43150;50.986;18.208;2023-01-08T12:42:29;20.60;;;18.50;;
57303;SDS011;43150;50.986;18.208;2023-01-08T12:44:55;23.30;;;20.80;;
57303;SDS011;43150;50.986;18.208;2023-01-08T12:47:24;18.40;;;16.50;;
57303;SDS011;43150;50.986;18.208;2023-01-08T12:49:59;19.70;;;17.70;;
57303;SDS011;43150;50.986;18.208;2023-01-08T12:52:29;19.00;;;17.10;;
57303;SDS011;43150;50.986;18.208;2023-01-08T12:55:20;18.90;;;17.10;;
57303;SDS011;43150;50.986;18.208;2023-01-08T13:00:36;19.10;;;17.10;;
57303;SDS011;43150;50.986;18.208;2023-01-08T13:03:04;21.30;;;18.00;;
57303;SDS011;43150;50.986;18.208;2023-01-08T13:05:32;22.80;;;18.90;;
57303;SDS011;43150;50.986;18.208;2023-01-08T13:07:59;21.10;;;17.90;;
57303;SDS011;43150;50.986;18.208;2023-01-08T13:10:33;20.20;;;18.10;;
57303;SDS011;43150;50.986;18.208;2023-01-08T13:12:59;21.40;;;19.00;;
57303;SDS011;43150;50.986;18.208;2023-01-08T13:15:29;20.20;;;18.10;;
57303;SDS011;43150;50.986;18.208;2023-01-08T13:17:56;22.40;;;19.80;;
57303;SDS011;43150;50.986;18.208;2023-01-08T13:20:29;21.80;;;19.50;;
57303;SDS011;43150;50.986;18.208;2023-01-08T13:22:58;22.50;;;20.10;;
57303;SDS011;43150;50.986;18.208;2023-01-08T13:27:50;20.40;;;18.30;;
57303;SDS011;43150;50.986;18.208;2023-01-08T13:30:30;21.30;;;19.10;;
57303;SDS011;43150;50.986;18.208;2023-01-08T13:32:57;23.60;;;20.80;;
57303;SDS011;43150;50.986;18.208;2023-01-08T13:35:28;25.70;;;22.80;;
57303;SDS011;43150;50.986;18.208;2023-01-08T13:40:57;31.20;;;27.80;;
57303;SDS011;43150;50.986;18.208;2023-01-08T13:43:23;32.00;;;28.50;;
57303;SDS011;43150;50.986;18.208;2023-01-08T13:48:24;29.80;;;19.30;;
57303;SDS011;43150;50.986;18.208;2023-01-08T13:50:50;26.60;;;23.40;;
57303;SDS011;43150;50.986;18.208;2023-01-08T13:53:16;25.70;;;23.00;;
57303;SDS011;43150;50.986;18.208;2023-01-08T13:55:43;25.80;;;17.70;;
57303;SDS011;43150;50.986;18.208;2023-01-08T13:58:22;30.00;;;19.10;;
57303;SDS011;43150;50.986;18.208;2023-01-08T14:00:49;41.10;;;23.50;;
57303;SDS011;43150;50.986;18.208;2023-01-08T14:05:46;24.80;;;16.10;;
57303;SDS011;43150;50.986;18.208;2023-01-08T14:08:24;40.40;;;23.10;;
57303;SDS011;43150;50.986;18.208;2023-01-08T14:10:50;42.00;;;25.70;;
57303;SDS011;43150;50.986;18.208;2023-01-08T14:13:16;41.30;;;25.00;;
57303;SDS011;43150;50.986;18.208;2023-01-08T14:15:42;32.30;;;28.70;;
57303;SDS011;43150;50.986;18.208;2023-01-08T14:18:11;30.90;;;20.00;;
57303;SDS011;43150;50.986;18.208;2023-01-08T14:20:38;33.80;;;20.80;;
57303;SDS011;43150;50.986;18.208;2023-01-08T14:23:09;33.50;;;22.00;;
57303;SDS011;43150;50.986;18.208;2023-01-08T14:25:35;32.00;;;21.30;;
57303;SDS011;43150;50.986;18.208;2023-01-08T14:28:02;34.30;;;22.00;;
57303;SDS011;43150;50.986;18.208;2023-01-08T14:30:28;31.90;;;20.80;;
57303;SDS011;43150;50.986;18.208;2023-01-08T14:32:55;32.00;;;19.70;;
57303;SDS011;43150;50.986;18.208;2023-01-08T14:35:26;29.40;;;19.20;;
57303;SDS011;43150;50.986;18.208;2023-01-08T14:37:53;30.10;;;19.50;;
57303;SDS011;43150;50.986;18.208;2023-01-08T14:40:29;32.70;;;20.00;;
57303;SDS011;43150;50.986;18.208;2023-01-08T14:42:56;32.00;;;20.50;;
57303;SDS011;43150;50.986;18.208;2023-01-08T14:45:25;32.40;;;20.60;;
57303;SDS011;43150;50.986;18.208;2023-01-08T14:47:52;34.80;;;21.20;;
57303;SDS011;43150;50.986;18.208;2023-01-08T14:50:23;35.40;;;21.70;;
57303;SDS011;43150;50.986;18.208;2023-01-08T14:52:49;33.10;;;20.70;;
57303;SDS011;43150;50.986;18.208;2023-01-08T14:55:16;37.70;;;21.90;;
57303;SDS011;43150;50.986;18.208;2023-01-08T14:57:46;34.70;;;20.40;;
57303;SDS011;43150;50.986;18.208;2023-01-08T15:00:15;45.00;;;31.90;;
57303;SDS011;43150;50.986;18.208;2023-01-08T15:02:41;136.30;;;56.50;;
57303;SDS011;43150;50.986;18.208;2023-01-08T15:10:40;52.60;;;38.50;;
57303;SDS011;43150;50.986;18.208;2023-01-08T15:13:10;36.90;;;25.30;;
57303;SDS011;43150;50.986;18.208;2023-01-08T15:15:53;39.30;;;27.80;;
57303;SDS011;43150;50.986;18.208;2023-01-08T15:18:20;31.80;;;19.70;;
57303;SDS011;43150;50.986;18.208;2023-01-08T15:20:45;34.10;;;21.40;;
57303;SDS011;43150;50.986;18.208;2023-01-08T15:23:17;35.30;;;23.10;;
57303;SDS011;43150;50.986;18.208;2023-01-08T15:25:45;35.60;;;23.70;;
57303;SDS011;43150;50.986;18.208;2023-01-08T15:28:11;36.60;;;24.20;;
57303;SDS011;43150;50.986;18.208;2023-01-08T15:30:38;34.30;;;21.80;;
57303;SDS011;43150;50.986;18.208;2023-01-08T15:35:41;40.50;;;27.10;;
57303;SDS011;43150;50.986;18.208;2023-01-08T15:38:08;37.20;;;24.20;;
57303;SDS011;43150;50.986;18.208;2023-01-08T15:40:33;38.70;;;21.90;;
57303;SDS011;43150;50.986;18.208;2023-01-08T15:42:59;30.50;;;19.70;;
57303;SDS011;43150;50.986;18.208;2023-01-08T15:45:39;31.00;;;19.40;;
57303;SDS011;43150;50.986;18.208;2023-01-08T15:48:05;34.80;;;21.40;;
57303;SDS011;43150;50.986;18.208;2023-01-08T15:50:31;42.50;;;25.50;;